sensor_id;sensor_type;location;lat;lon;timestamp;temperature;humidity
8832;DHT22;4452;50.756;4.472;2023-09-19T00:00:30;14.80;99.90
8832;DHT22;4452;50.756;4.472;2023-09-19T00:02:57;14.70;99.90
8832;DHT22;4452;50.756;4.472;2023-09-19T00:05:29;14.70;99.90
8832;DHT22;4452;50.756;4.472;2023-09-19T00:07:56;14.70;99.90
8832;DHT22;4452;50.756;4.472;2023-09-19T00:10:31;14.70;99.90
8832;DHT22;4452;50.756;4.472;2023-09-19T00:12:57;14.70;99.90
8832;DHT22;4452;50.756;4.472;2023-09-19T00:15:25;14.60;99.90
8832;DHT22;4452;50.756;4.472;2023-09-19T00:17:54;14.60;99.90
8832;DHT22;4452;50.756;4.472;2023-09-19T00:20:21;14.60;99.90
8832;DHT22;4452;50.756;4.472;2023-09-19T00:22:49;14.60;99.90
8832;DHT22;4452;50.756;4.472;2023-09-19T00:25:20;14.50;99.90
8832;DHT22;4452;50.756;4.472;2023-09-19T00:27:46;14.50;99.90
8832;DHT22;4452;50.756;4.472;2023-09-19T00:30:17;14.50;99.90
8832;DHT22;4452;50.756;4.472;2023-09-19T00:32:47;14.40;99.90
8832;DHT22;4452;50.756;4.472;2023-09-19T00:35:16;14.40;99.90
8832;DHT22;4452;50.756;4.472;2023-09-19T00:37:42;14.40;99.90
8832;DHT22;4452;50.756;4.472;2023-09-19T00:40:09;14.40;99.90
8832;DHT22;4452;50.756;4.472;2023-09-19T00:42:39;14.40;99.90
8832;DHT22;4452;50.756;4.472;2023-09-19T00:45:07;14.40;99.90
8832;DHT22;4452;50.756;4.472;2023-09-19T00:47:36;14.40;99.90
8832;DHT22;4452;50.756;4.472;2023-09-19T00:50:04;14.10;99.90
8832;DHT22;4452;50.756;4.472;2023-09-19T00:52:39;14.50;99.90
8832;DHT22;4452;50.756;4.472;2023-09-19T00:55:06;14.40;99.90
8832;DHT22;4452;50.756;4.472;2023-09-19T00:57:33;14.30;99.90
8832;DHT22;4452;50.756;4.472;2023-09-19T01:00:01;14.30;99.90
8832;DHT22;4452;50.756;4.472;2023-09-19T01:02:31;14.20;99.90
8832;DHT22;4452;50.756;4.472;2023-09-19T01:04:58;14.30;99.90
8832;DHT22;4452;50.756;4.472;2023-09-19T01:07:24;14.20;99.90
8832;DHT22;4452;50.756;4.472;2023-09-19T01:09:50;14.20;99.90
8832;DHT22;4452;50.756;4.472;2023-09-19T01:12:22;14.20;99.90
8832;DHT22;4452;50.756;4.472;2023-09-19T01:17:27;14.10;99.90
8832;DHT22;4452;50.756;4.472;2023-09-19T01:20:21;14.00;99.90
8832;DHT22;4452;50.756;4.472;2023-09-19T01:31:02;14.00;99.90
8832;DHT22;4452;50.756;4.472;2023-09-19T01:36:37;14.00;99.90
8832;DHT22;4452;50.756;4.472;2023-09-19T01:39:08;13.90;99.90
8832;DHT22;4452;50.756;4.472;2023-09-19T01:41:47;13.90;99.90
8832;DHT22;4452;50.756;4.472;2023-09-19T01:44:40;13.90;99.90
8832;DHT22;4452;50.756;4.472;2023-09-19T01:50:17;13.90;99.90
8832;DHT22;4452;50.756;4.472;2023-09-19T01:52:54;13.90;99.90
8832;DHT22;4452;50.756;4.472;2023-09-19T01:55:23;13.90;99.90
8832;DHT22;4452;50.756;4.472;2023-09-19T01:58:09;14.00;99.90
8832;DHT22;4452;50.756;4.472;2023-09-19T02:00:38;14.00;99.90
8832;DHT22;4452;50.756;4.472;2023-09-19T02:03:05;13.90;99.90
8832;DHT22;4452;50.756;4.472;2023-09-19T02:05:31;14.00;99.90
8832;DHT22;4452;50.756;4.472;2023-09-19T02:07:58;13.90;99.90
8832;DHT22;4452;50.756;4.472;2023-09-19T02:10:24;13.90;99.90
8832;DHT22;4452;50.756;4.472;2023-09-19T02:12:50;13.90;99.90
8832;DHT22;4452;50.756;4.472;2023-09-19T02:15:16;13.80;99.90
8832;DHT22;4452;50.756;4.472;2023-09-19T02:17:43;13.80;99.90
8832;DHT22;4452;50.756;4.472;2023-09-19T02:20:10;13.80;99.90
8832;DHT22;4452;50.756;4.472;2023-09-19T02:22:42;13.80;99.90
8832;DHT22;4452;50.756;4.472;2023-09-19T02:25:08;13.80;99.90
8832;DHT22;4452;50.756;4.472;2023-09-19T02:27:34;13.70;99.90
8832;DHT22;4452;50.756;4.472;2023-09-19T02:30:00;13.70;99.90
8832;DHT22;4452;50.756;4.472;2023-09-19T02:32:30;13.80;99.90
8832;DHT22;4452;50.756;4.472;2023-09-19T02:34:57;13.80;99.90
8832;DHT22;4452;50.756;4.472;2023-09-19T02:37:26;13.80;99.90
8832;DHT22;4452;50.756;4.472;2023-09-19T02:39:51;13.80;99.90
8832;DHT22;4452;50.756;4.472;2023-09-19T02:42:17;13.80;99.90
8832;DHT22;4452;50.756;4.472;2023-09-19T02:44:43;13.90;99.90
8832;DHT22;4452;50.756;4.472;2023-09-19T02:47:12;13.90;99.90
8832;DHT22;4452;50.756;4.472;2023-09-19T02:49:40;14.00;99.90
8832;DHT22;4452;50.756;4.472;2023-09-19T02:52:07;14.00;99.90
8832;DHT22;4452;50.756;4.472;2023-09-19T02:54:33;14.10;99.90
8832;DHT22;4452;50.756;4.472;2023-09-19T02:56:58;14.10;99.90
8832;DHT22;4452;50.756;4.472;2023-09-19T02:59:24;14.10;99.90
8832;DHT22;4452;50.756;4.472;2023-09-19T03:01:50;14.20;99.90
8832;DHT22;4452;50.756;4.472;2023-09-19T03:04:16;14.20;99.90
8832;DHT22;4452;50.756;4.472;2023-09-19T03:06:45;14.20;99.90
8832;DHT22;4452;50.756;4.472;2023-09-19T03:09:11;14.00;99.90
8832;DHT22;4452;50.756;4.472;2023-09-19T03:11:38;14.00;99.90
8832;DHT22;4452;50.756;4.472;2023-09-19T03:14:05;13.90;99.90
8832;DHT22;4452;50.756;4.472;2023-09-19T03:16:31;13.70;99.90
8832;DHT22;4452;50.756;4.472;2023-09-19T03:18:57;13.60;99.90
8832;DHT22;4452;50.756;4.472;2023-09-19T03:21:25;13.50;99.90
8832;DHT22;4452;50.756;4.472;2023-09-19T03:23:51;13.50;99.90
8832;DHT22;4452;50.756;4.472;2023-09-19T03:26:17;13.50;99.90
8832;DHT22;4452;50.756;4.472;2023-09-19T03:28:43;13.50;99.90
8832;DHT22;4452;50.756;4.472;2023-09-19T03:31:09;13.50;99.90
8832;DHT22;4452;50.756;4.472;2023-09-19T03:33:35;13.50;99.90
8832;DHT22;4452;50.756;4.472;2023-09-19T03:36:01;13.50;99.90
8832;DHT22;4452;50.756;4.472;2023-09-19T03:38:30;13.60;99.90
8832;DHT22;4452;50.756;4.472;2023-09-19T03:40:57;13.60;99.90
8832;DHT22;4452;50.756;4.472;2023-09-19T03:43:22;13.50;99.90
8832;DHT22;4452;50.756;4.472;2023-09-19T03:45:48;13.60;99.90
8832;DHT22;4452;50.756;4.472;2023-09-19T03:48:14;13.50;99.90
8832;DHT22;4452;50.756;4.472;2023-09-19T03:50:40;13.60;99.90
8832;DHT22;4452;50.756;4.472;2023-09-19T03:53:06;13.50;99.90
8832;DHT22;4452;50.756;4.472;2023-09-19T03:55:35;13.60;99.90
8832;DHT22;4452;50.756;4.472;2023-09-19T03:58:01;13.60;99.90
8832;DHT22;4452;50.756;4.472;2023-09-19T04:00:27;13.50;99.90
8832;DHT22;4452;50.756;4.472;2023-09-19T04:02:55;13.50;99.90
8832;DHT22;4452;50.756;4.472;2023-09-19T04:05:22;13.60;99.90
8832;DHT22;4452;50.756;4.472;2023-09-19T04:07:48;13.60;99.90
8832;DHT22;4452;50.756;4.472;2023-09-19T04:10:14;13.60;99.90
8832;DHT22;4452;50.756;4.472;2023-09-19T04:12:40;13.60;99.90
8832;DHT22;4452;50.756;4.472;2023-09-19T04:15:06;13.60;99.90
8832;DHT22;4452;50.756;4.472;2023-09-19T04:17:32;13.60;99.90
8832;DHT22;4452;50.756;4.472;2023-09-19T04:19:59;13.60;99.90
8832;DHT22;4452;50.756;4.472;2023-09-19T04:22:25;13.70;99.90
8832;DHT22;4452;50.756;4.472;2023-09-19T04:24:51;13.70;99.90
8832;DHT22;4452;50.756;4.472;2023-09-19T04:27:17;13.70;99.90
8832;DHT22;4452;50.756;4.472;2023-09-19T04:29:44;13.60;99.90
8832;DHT22;4452;50.756;4.472;2023-09-19T04:32:10;13.70;99.90
8832;DHT22;4452;50.756;4.472;2023-09-19T04:34:36;13.70;99.90
8832;DHT22;4452;50.756;4.472;2023-09-19T04:37:03;13.70;99.90
8832;DHT22;4452;50.756;4.472;2023-09-19T04:39:29;13.70;99.90
8832;DHT22;4452;50.756;4.472;2023-09-19T04:41:55;13.70;99.90
8832;DHT22;4452;50.756;4.472;2023-09-19T04:44:21;13.60;99.90
8832;DHT22;4452;50.756;4.472;2023-09-19T04:46:47;13.50;99.90
8832;DHT22;4452;50.756;4.472;2023-09-19T04:49:13;13.50;99.90
8832;DHT22;4452;50.756;4.472;2023-09-19T04:51:39;13.50;99.90
8832;DHT22;4452;50.756;4.472;2023-09-19T04:54:05;13.50;99.90
8832;DHT22;4452;50.756;4.472;2023-09-19T04:56:32;13.40;99.90
8832;DHT22;4452;50.756;4.472;2023-09-19T04:58:59;13.40;99.90
8832;DHT22;4452;50.756;4.472;2023-09-19T05:01:26;13.40;99.90
8832;DHT22;4452;50.756;4.472;2023-09-19T05:03:52;13.30;99.90
8832;DHT22;4452;50.756;4.472;2023-09-19T05:06:22;13.30;99.90
8832;DHT22;4452;50.756;4.472;2023-09-19T05:08:48;13.20;99.90
8832;DHT22;4452;50.756;4.472;2023-09-19T05:11:19;13.30;99.90
8832;DHT22;4452;50.756;4.472;2023-09-19T05:13:47;13.30;99.90
8832;DHT22;4452;50.756;4.472;2023-09-19T05:16:13;13.20;99.90
8832;DHT22;4452;50.756;4.472;2023-09-19T05:18:39;13.20;99.90
8832;DHT22;4452;50.756;4.472;2023-09-19T05:21:05;13.30;99.90
8832;DHT22;4452;50.756;4.472;2023-09-19T05:23:31;13.20;99.90
8832;DHT22;4452;50.756;4.472;2023-09-19T05:25:58;13.20;99.90
8832;DHT22;4452;50.756;4.472;2023-09-19T05:28:25;13.20;99.90
8832;DHT22;4452;50.756;4.472;2023-09-19T05:30:52;13.20;99.90
8832;DHT22;4452;50.756;4.472;2023-09-19T05:33:19;13.20;99.90
8832;DHT22;4452;50.756;4.472;2023-09-19T05:35:45;13.30;99.90
8832;DHT22;4452;50.756;4.472;2023-09-19T05:38:13;13.30;99.90
8832;DHT22;4452;50.756;4.472;2023-09-19T05:40:40;13.20;99.90
8832;DHT22;4452;50.756;4.472;2023-09-19T05:43:10;13.30;99.90
8832;DHT22;4452;50.756;4.472;2023-09-19T05:45:36;13.30;99.90
8832;DHT22;4452;50.756;4.472;2023-09-19T05:48:13;13.30;99.90
8832;DHT22;4452;50.756;4.472;2023-09-19T05:50:41;13.30;99.90
8832;DHT22;4452;50.756;4.472;2023-09-19T05:53:07;13.30;99.90
8832;DHT22;4452;50.756;4.472;2023-09-19T05:55:33;13.30;99.90
8832;DHT22;4452;50.756;4.472;2023-09-19T05:57:59;13.40;99.90
8832;DHT22;4452;50.756;4.472;2023-09-19T06:00:25;13.40;99.90
8832;DHT22;4452;50.756;4.472;2023-09-19T06:02:57;13.40;99.90
8832;DHT22;4452;50.756;4.472;2023-09-19T06:05:27;13.40;99.90
8832;DHT22;4452;50.756;4.472;2023-09-19T06:07:53;13.40;99.90
8832;DHT22;4452;50.756;4.472;2023-09-19T06:10:19;13.50;99.90
8832;DHT22;4452;50.756;4.472;2023-09-19T06:12:48;13.50;99.90
8832;DHT22;4452;50.756;4.472;2023-09-19T06:15:15;13.50;99.90
8832;DHT22;4452;50.756;4.472;2023-09-19T06:18:01;13.60;99.90
8832;DHT22;4452;50.756;4.472;2023-09-19T06:20:30;13.60;99.90
8832;DHT22;4452;50.756;4.472;2023-09-19T06:22:56;13.60;99.90
8832;DHT22;4452;50.756;4.472;2023-09-19T06:25:22;13.60;99.90
8832;DHT22;4452;50.756;4.472;2023-09-19T06:27:49;13.60;99.90
8832;DHT22;4452;50.756;4.472;2023-09-19T06:30:18;13.70;99.90
8832;DHT22;4452;50.756;4.472;2023-09-19T06:32:43;13.70;99.90
8832;DHT22;4452;50.756;4.472;2023-09-19T06:35:10;13.70;99.90
8832;DHT22;4452;50.756;4.472;2023-09-19T06:37:40;13.70;99.90
8832;DHT22;4452;50.756;4.472;2023-09-19T06:40:13;13.80;99.90
8832;DHT22;4452;50.756;4.472;2023-09-19T06:42:42;13.80;99.90
8832;DHT22;4452;50.756;4.472;2023-09-19T06:45:10;13.80;99.90
8832;DHT22;4452;50.756;4.472;2023-09-19T06:47:46;13.80;99.90
8832;DHT22;4452;50.756;4.472;2023-09-19T06:50:22;13.80;99.90
8832;DHT22;4452;50.756;4.472;2023-09-19T06:52:52;13.80;99.90
8832;DHT22;4452;50.756;4.472;2023-09-19T06:55:19;13.90;99.90
8832;DHT22;4452;50.756;4.472;2023-09-19T06:57:48;13.90;99.90
8832;DHT22;4452;50.756;4.472;2023-09-19T07:00:14;13.90;99.90
8832;DHT22;4452;50.756;4.472;2023-09-19T07:02:56;13.90;99.90
8832;DHT22;4452;50.756;4.472;2023-09-19T07:05:23;14.00;99.90
8832;DHT22;4452;50.756;4.472;2023-09-19T07:07:48;14.00;99.90
8832;DHT22;4452;50.756;4.472;2023-09-19T07:10:14;14.10;99.90
8832;DHT22;4452;50.756;4.472;2023-09-19T07:12:41;14.10;99.90
8832;DHT22;4452;50.756;4.472;2023-09-19T07:15:10;14.10;99.90
8832;DHT22;4452;50.756;4.472;2023-09-19T07:17:36;14.20;99.90
8832;DHT22;4452;50.756;4.472;2023-09-19T07:20:02;14.20;99.90
8832;DHT22;4452;50.756;4.472;2023-09-19T07:22:33;14.30;99.90
8832;DHT22;4452;50.756;4.472;2023-09-19T07:24:59;14.30;99.90
8832;DHT22;4452;50.756;4.472;2023-09-19T07:27:24;14.40;99.90
8832;DHT22;4452;50.756;4.472;2023-09-19T07:29:50;14.50;99.90
8832;DHT22;4452;50.756;4.472;2023-09-19T07:32:16;14.50;99.90
8832;DHT22;4452;50.756;4.472;2023-09-19T07:34:42;14.50;99.90
8832;DHT22;4452;50.756;4.472;2023-09-19T07:37:10;14.60;99.90
8832;DHT22;4452;50.756;4.472;2023-09-19T07:39:38;14.70;99.90
8832;DHT22;4452;50.756;4.472;2023-09-19T07:42:09;14.70;99.90
8832;DHT22;4452;50.756;4.472;2023-09-19T07:44:37;14.70;99.90
8832;DHT22;4452;50.756;4.472;2023-09-19T07:47:03;14.80;99.90
8832;DHT22;4452;50.756;4.472;2023-09-19T07:49:31;14.80;99.90
8832;DHT22;4452;50.756;4.472;2023-09-19T07:51:57;14.80;99.90
8832;DHT22;4452;50.756;4.472;2023-09-19T07:54:24;14.90;99.90
8832;DHT22;4452;50.756;4.472;2023-09-19T07:56:50;15.00;99.90
8832;DHT22;4452;50.756;4.472;2023-09-19T07:59:15;14.90;99.90
8832;DHT22;4452;50.756;4.472;2023-09-19T08:01:41;15.00;99.90
8832;DHT22;4452;50.756;4.472;2023-09-19T08:04:07;14.90;99.90
8832;DHT22;4452;50.756;4.472;2023-09-19T08:06:33;15.10;99.90
8832;DHT22;4452;50.756;4.472;2023-09-19T08:08:59;15.20;99.90
8832;DHT22;4452;50.756;4.472;2023-09-19T08:11:26;15.20;99.90
8832;DHT22;4452;50.756;4.472;2023-09-19T08:13:52;15.20;99.90
8832;DHT22;4452;50.756;4.472;2023-09-19T08:16:18;15.40;99.90
8832;DHT22;4452;50.756;4.472;2023-09-19T08:18:48;15.40;99.90
8832;DHT22;4452;50.756;4.472;2023-09-19T08:21:18;15.50;99.90
8832;DHT22;4452;50.756;4.472;2023-09-19T08:23:44;15.50;99.90
8832;DHT22;4452;50.756;4.472;2023-09-19T08:26:10;15.50;99.90
8832;DHT22;4452;50.756;4.472;2023-09-19T08:28:38;15.50;99.90
8832;DHT22;4452;50.756;4.472;2023-09-19T08:31:07;15.60;99.90
8832;DHT22;4452;50.756;4.472;2023-09-19T08:33:37;15.60;99.90
8832;DHT22;4452;50.756;4.472;2023-09-19T08:36:06;15.70;99.90
8832;DHT22;4452;50.756;4.472;2023-09-19T08:38:35;15.70;99.90
8832;DHT22;4452;50.756;4.472;2023-09-19T08:41:06;15.80;99.90
8832;DHT22;4452;50.756;4.472;2023-09-19T08:43:33;15.90;99.90
8832;DHT22;4452;50.756;4.472;2023-09-19T08:46:20;15.90;99.90
8832;DHT22;4452;50.756;4.472;2023-09-19T08:49:01;15.90;99.90
8832;DHT22;4452;50.756;4.472;2023-09-19T08:51:48;16.10;99.90
8832;DHT22;4452;50.756;4.472;2023-09-19T08:54:26;16.00;99.90
8832;DHT22;4452;50.756;4.472;2023-09-19T08:57:01;16.20;99.90
8832;DHT22;4452;50.756;4.472;2023-09-19T08:59:37;16.30;99.90
8832;DHT22;4452;50.756;4.472;2023-09-19T09:02:10;16.40;99.90
8832;DHT22;4452;50.756;4.472;2023-09-19T09:04:41;16.40;99.90
8832;DHT22;4452;50.756;4.472;2023-09-19T09:07:13;16.70;99.90
8832;DHT22;4452;50.756;4.472;2023-09-19T09:09:40;16.60;99.90
8832;DHT22;4452;50.756;4.472;2023-09-19T09:12:12;16.40;99.90
8832;DHT22;4452;50.756;4.472;2023-09-19T09:14:47;16.70;99.90
8832;DHT22;4452;50.756;4.472;2023-09-19T09:17:16;16.70;99.90
8832;DHT22;4452;50.756;4.472;2023-09-19T09:19:48;16.70;99.90
8832;DHT22;4452;50.756;4.472;2023-09-19T09:22:14;16.80;99.90
8832;DHT22;4452;50.756;4.472;2023-09-19T09:24:55;16.80;99.90
8832;DHT22;4452;50.756;4.472;2023-09-19T09:27:26;17.00;99.90
8832;DHT22;4452;50.756;4.472;2023-09-19T09:29:53;17.00;99.90
8832;DHT22;4452;50.756;4.472;2023-09-19T09:34:53;17.00;99.90
8832;DHT22;4452;50.756;4.472;2023-09-19T09:37:19;17.10;99.90
8832;DHT22;4452;50.756;4.472;2023-09-19T09:40:02;17.10;99.90
8832;DHT22;4452;50.756;4.472;2023-09-19T09:42:40;17.20;99.90
8832;DHT22;4452;50.756;4.472;2023-09-19T09:45:20;17.20;99.90
8832;DHT22;4452;50.756;4.472;2023-09-19T09:47:58;17.20;99.90
8832;DHT22;4452;50.756;4.472;2023-09-19T09:50:29;17.10;99.90
8832;DHT22;4452;50.756;4.472;2023-09-19T09:53:42;17.20;99.90
8832;DHT22;4452;50.756;4.472;2023-09-19T09:56:13;17.10;99.90
8832;DHT22;4452;50.756;4.472;2023-09-19T09:58:50;17.10;99.90
8832;DHT22;4452;50.756;4.472;2023-09-19T10:01:21;17.00;99.90
8832;DHT22;4452;50.756;4.472;2023-09-19T10:03:58;17.10;99.90
8832;DHT22;4452;50.756;4.472;2023-09-19T10:06:26;17.00;99.90
8832;DHT22;4452;50.756;4.472;2023-09-19T10:09:05;17.00;99.90
8832;DHT22;4452;50.756;4.472;2023-09-19T10:11:43;17.10;99.90
8832;DHT22;4452;50.756;4.472;2023-09-19T10:14:16;17.10;99.90
8832;DHT22;4452;50.756;4.472;2023-09-19T10:16:47;17.10;99.90
8832;DHT22;4452;50.756;4.472;2023-09-19T10:22:18;17.30;99.90
8832;DHT22;4452;50.756;4.472;2023-09-19T10:24:49;17.30;99.90
8832;DHT22;4452;50.756;4.472;2023-09-19T10:27:19;17.40;99.90
8832;DHT22;4452;50.756;4.472;2023-09-19T10:29:49;17.40;99.90
8832;DHT22;4452;50.756;4.472;2023-09-19T10:32:20;17.50;99.90
8832;DHT22;4452;50.756;4.472;2023-09-19T10:34:50;17.70;99.90
8832;DHT22;4452;50.756;4.472;2023-09-19T10:37:16;17.60;99.90
8832;DHT22;4452;50.756;4.472;2023-09-19T10:39:46;17.70;99.90
8832;DHT22;4452;50.756;4.472;2023-09-19T10:42:19;17.70;99.90
8832;DHT22;4452;50.756;4.472;2023-09-19T10:44:47;18.00;99.90
8832;DHT22;4452;50.756;4.472;2023-09-19T10:47:19;18.10;99.90
8832;DHT22;4452;50.756;4.472;2023-09-19T10:49:47;18.10;99.90
8832;DHT22;4452;50.756;4.472;2023-09-19T10:52:15;18.00;99.90
8832;DHT22;4452;50.756;4.472;2023-09-19T10:54:49;17.80;99.90
8832;DHT22;4452;50.756;4.472;2023-09-19T10:57:23;17.80;99.90
8832;DHT22;4452;50.756;4.472;2023-09-19T11:00:05;18.00;99.90
8832;DHT22;4452;50.756;4.472;2023-09-19T11:03:25;18.00;99.90
8832;DHT22;4452;50.756;4.472;2023-09-19T11:06:04;18.30;99.90
8832;DHT22;4452;50.756;4.472;2023-09-19T11:08:54;18.20;99.90
8832;DHT22;4452;50.756;4.472;2023-09-19T11:11:48;18.20;99.90
8832;DHT22;4452;50.756;4.472;2023-09-19T11:22:20;18.50;99.90
8832;DHT22;4452;50.756;4.472;2023-09-19T11:24:47;18.50;99.90
8832;DHT22;4452;50.756;4.472;2023-09-19T11:27:14;18.40;99.90
8832;DHT22;4452;50.756;4.472;2023-09-19T11:29:42;18.70;99.90
8832;DHT22;4452;50.756;4.472;2023-09-19T11:32:08;19.00;99.90
8832;DHT22;4452;50.756;4.472;2023-09-19T11:34:45;19.10;99.90
8832;DHT22;4452;50.756;4.472;2023-09-19T11:40:05;19.90;99.90
8832;DHT22;4452;50.756;4.472;2023-09-19T11:42:44;19.70;99.90
8832;DHT22;4452;50.756;4.472;2023-09-19T11:48:23;19.30;99.90
8832;DHT22;4452;50.756;4.472;2023-09-19T11:50:58;19.40;99.90
8832;DHT22;4452;50.756;4.472;2023-09-19T11:53:31;19.10;99.90
8832;DHT22;4452;50.756;4.472;2023-09-19T11:55:58;19.00;99.90
8832;DHT22;4452;50.756;4.472;2023-09-19T11:58:26;18.90;99.90
8832;DHT22;4452;50.756;4.472;2023-09-19T12:00:54;18.90;99.90
8832;DHT22;4452;50.756;4.472;2023-09-19T12:03:29;19.50;99.90
8832;DHT22;4452;50.756;4.472;2023-09-19T12:05:56;19.20;99.90
8832;DHT22;4452;50.756;4.472;2023-09-19T12:08:23;19.00;99.90
8832;DHT22;4452;50.756;4.472;2023-09-19T12:10:50;18.80;99.90
8832;DHT22;4452;50.756;4.472;2023-09-19T12:13:19;18.80;99.90
8832;DHT22;4452;50.756;4.472;2023-09-19T12:15:46;18.90;99.90
8832;DHT22;4452;50.756;4.472;2023-09-19T12:18:28;18.80;99.90
8832;DHT22;4452;50.756;4.472;2023-09-19T12:20:55;18.90;99.90
8832;DHT22;4452;50.756;4.472;2023-09-19T12:23:21;18.80;99.90
8832;DHT22;4452;50.756;4.472;2023-09-19T12:25:47;18.70;99.90
8832;DHT22;4452;50.756;4.472;2023-09-19T12:28:17;18.50;99.90
8832;DHT22;4452;50.756;4.472;2023-09-19T12:30:42;18.50;99.90
8832;DHT22;4452;50.756;4.472;2023-09-19T12:33:21;18.50;99.90
8832;DHT22;4452;50.756;4.472;2023-09-19T12:35:50;18.50;99.90
8832;DHT22;4452;50.756;4.472;2023-09-19T12:38:25;18.40;99.90
8832;DHT22;4452;50.756;4.472;2023-09-19T12:40:55;18.40;99.90
8832;DHT22;4452;50.756;4.472;2023-09-19T12:43:21;18.40;99.90
8832;DHT22;4452;50.756;4.472;2023-09-19T12:45:47;18.40;99.90
8832;DHT22;4452;50.756;4.472;2023-09-19T12:51:08;18.40;99.90
8832;DHT22;4452;50.756;4.472;2023-09-19T12:53:43;18.50;99.90
8832;DHT22;4452;50.756;4.472;2023-09-19T12:56:12;18.70;99.90
8832;DHT22;4452;50.756;4.472;2023-09-19T12:58:56;18.90;99.90
8832;DHT22;4452;50.756;4.472;2023-09-19T13:01:23;19.10;99.90
8832;DHT22;4452;50.756;4.472;2023-09-19T13:06:50;18.80;99.90
8832;DHT22;4452;50.756;4.472;2023-09-19T13:09:17;18.80;99.90
8832;DHT22;4452;50.756;4.472;2023-09-19T13:11:44;18.90;99.90
8832;DHT22;4452;50.756;4.472;2023-09-19T13:17:10;18.70;99.90
8832;DHT22;4452;50.756;4.472;2023-09-19T13:22:38;18.80;99.90
8832;DHT22;4452;50.756;4.472;2023-09-19T13:25:08;18.70;99.90
8832;DHT22;4452;50.756;4.472;2023-09-19T13:27:40;18.90;99.90
8832;DHT22;4452;50.756;4.472;2023-09-19T13:30:07;18.90;99.90
8832;DHT22;4452;50.756;4.472;2023-09-19T13:32:33;18.90;99.90
8832;DHT22;4452;50.756;4.472;2023-09-19T13:34:59;18.80;99.90
8832;DHT22;4452;50.756;4.472;2023-09-19T13:37:25;18.80;99.90
8832;DHT22;4452;50.756;4.472;2023-09-19T13:39:52;18.80;99.90
8832;DHT22;4452;50.756;4.472;2023-09-19T13:42:19;18.90;99.90
8832;DHT22;4452;50.756;4.472;2023-09-19T13:44:47;18.90;99.90
8832;DHT22;4452;50.756;4.472;2023-09-19T13:47:13;18.80;99.90
8832;DHT22;4452;50.756;4.472;2023-09-19T13:49:40;18.80;99.90
8832;DHT22;4452;50.756;4.472;2023-09-19T13:52:06;18.80;99.90
8832;DHT22;4452;50.756;4.472;2023-09-19T13:54:32;18.80;99.90
8832;DHT22;4452;50.756;4.472;2023-09-19T13:56:58;19.00;99.90
8832;DHT22;4452;50.756;4.472;2023-09-19T13:59:24;19.40;99.90
8832;DHT22;4452;50.756;4.472;2023-09-19T14:01:50;19.80;99.90
8832;DHT22;4452;50.756;4.472;2023-09-19T14:04:20;19.60;99.90
8832;DHT22;4452;50.756;4.472;2023-09-19T14:06:47;19.70;99.90
8832;DHT22;4452;50.756;4.472;2023-09-19T14:09:13;19.40;99.90
8832;DHT22;4452;50.756;4.472;2023-09-19T14:11:39;19.30;99.90
8832;DHT22;4452;50.756;4.472;2023-09-19T14:14:05;19.20;99.90
8832;DHT22;4452;50.756;4.472;2023-09-19T14:16:32;19.20;99.90
8832;DHT22;4452;50.756;4.472;2023-09-19T14:18:59;19.10;99.90
8832;DHT22;4452;50.756;4.472;2023-09-19T14:21:25;18.90;99.90
8832;DHT22;4452;50.756;4.472;2023-09-19T14:23:51;18.90;99.90
8832;DHT22;4452;50.756;4.472;2023-09-19T14:26:17;19.00;99.90
8832;DHT22;4452;50.756;4.472;2023-09-19T14:28:43;18.90;99.90
8832;DHT22;4452;50.756;4.472;2023-09-19T14:31:11;19.20;99.90
8832;DHT22;4452;50.756;4.472;2023-09-19T14:33:37;19.30;99.90
8832;DHT22;4452;50.756;4.472;2023-09-19T14:36:04;19.30;99.90
8832;DHT22;4452;50.756;4.472;2023-09-19T14:38:35;19.10;99.90
8832;DHT22;4452;50.756;4.472;2023-09-19T14:41:05;19.10;99.90
8832;DHT22;4452;50.756;4.472;2023-09-19T14:43:32;19.60;99.90
8832;DHT22;4452;50.756;4.472;2023-09-19T14:46:08;19.70;99.90
8832;DHT22;4452;50.756;4.472;2023-09-19T14:48:38;19.80;99.90
8832;DHT22;4452;50.756;4.472;2023-09-19T14:51:07;20.30;99.90
8832;DHT22;4452;50.756;4.472;2023-09-19T14:53:42;20.60;99.90
8832;DHT22;4452;50.756;4.472;2023-09-19T14:56:11;20.70;99.90
8832;DHT22;4452;50.756;4.472;2023-09-19T14:58:47;20.80;99.90
8832;DHT22;4452;50.756;4.472;2023-09-19T15:01:16;20.40;99.90
8832;DHT22;4452;50.756;4.472;2023-09-19T15:03:45;20.40;99.90
8832;DHT22;4452;50.756;4.472;2023-09-19T15:06:14;19.90;99.90
8832;DHT22;4452;50.756;4.472;2023-09-19T15:08:45;19.50;99.90
8832;DHT22;4452;50.756;4.472;2023-09-19T15:11:18;19.50;99.90
8832;DHT22;4452;50.756;4.472;2023-09-19T15:13:48;19.30;99.90
8832;DHT22;4452;50.756;4.472;2023-09-19T15:16:17;19.30;99.90
8832;DHT22;4452;50.756;4.472;2023-09-19T15:18:45;19.00;99.90
8832;DHT22;4452;50.756;4.472;2023-09-19T15:21:14;18.90;99.90
8832;DHT22;4452;50.756;4.472;2023-09-19T15:23:41;18.90;99.90
8832;DHT22;4452;50.756;4.472;2023-09-19T15:26:07;18.90;99.90
8832;DHT22;4452;50.756;4.472;2023-09-19T15:28:44;18.70;99.90
8832;DHT22;4452;50.756;4.472;2023-09-19T15:31:13;18.80;99.90
8832;DHT22;4452;50.756;4.472;2023-09-19T15:33:41;18.80;99.90
8832;DHT22;4452;50.756;4.472;2023-09-19T15:36:14;18.70;99.90
8832;DHT22;4452;50.756;4.472;2023-09-19T15:38:57;18.60;99.90
8832;DHT22;4452;50.756;4.472;2023-09-19T15:41:26;18.50;99.90
8832;DHT22;4452;50.756;4.472;2023-09-19T15:43:53;18.40;99.90
8832;DHT22;4452;50.756;4.472;2023-09-19T15:46:19;18.40;99.90
8832;DHT22;4452;50.756;4.472;2023-09-19T15:48:46;18.50;99.90
8832;DHT22;4452;50.756;4.472;2023-09-19T15:51:12;18.50;99.90
8832;DHT22;4452;50.756;4.472;2023-09-19T15:53:46;18.60;99.90
8832;DHT22;4452;50.756;4.472;2023-09-19T15:56:17;18.60;99.90
8832;DHT22;4452;50.756;4.472;2023-09-19T15:58:46;18.50;99.90
8832;DHT22;4452;50.756;4.472;2023-09-19T16:01:14;18.60;99.90
8832;DHT22;4452;50.756;4.472;2023-09-19T16:03:44;18.50;99.90
8832;DHT22;4452;50.756;4.472;2023-09-19T16:06:13;18.50;99.90
8832;DHT22;4452;50.756;4.472;2023-09-19T16:08:43;18.40;99.90
8832;DHT22;4452;50.756;4.472;2023-09-19T16:11:10;18.40;99.90
8832;DHT22;4452;50.756;4.472;2023-09-19T16:13:40;18.50;99.90
8832;DHT22;4452;50.756;4.472;2023-09-19T16:16:12;18.40;99.90
8832;DHT22;4452;50.756;4.472;2023-09-19T16:18:39;18.30;99.90
8832;DHT22;4452;50.756;4.472;2023-09-19T16:21:06;18.30;99.90
8832;DHT22;4452;50.756;4.472;2023-09-19T16:23:34;18.30;99.90
8832;DHT22;4452;50.756;4.472;2023-09-19T16:26:02;18.30;99.90
8832;DHT22;4452;50.756;4.472;2023-09-19T16:28:31;18.30;99.90
8832;DHT22;4452;50.756;4.472;2023-09-19T16:31:04;18.30;99.90
8832;DHT22;4452;50.756;4.472;2023-09-19T16:33:35;18.20;99.90
8832;DHT22;4452;50.756;4.472;2023-09-19T16:36:10;18.20;99.90
8832;DHT22;4452;50.756;4.472;2023-09-19T16:38:37;18.10;99.90
8832;DHT22;4452;50.756;4.472;2023-09-19T16:41:04;18.20;99.90
8832;DHT22;4452;50.756;4.472;2023-09-19T16:43:31;18.10;99.90
8832;DHT22;4452;50.756;4.472;2023-09-19T16:46:05;18.10;99.90
8832;DHT22;4452;50.756;4.472;2023-09-19T16:48:37;18.10;99.90
8832;DHT22;4452;50.756;4.472;2023-09-19T16:51:10;18.10;99.90
8832;DHT22;4452;50.756;4.472;2023-09-19T16:53:39;18.10;99.90
8832;DHT22;4452;50.756;4.472;2023-09-19T16:56:10;18.10;99.90
8832;DHT22;4452;50.756;4.472;2023-09-19T16:58:44;18.10;99.90
8832;DHT22;4452;50.756;4.472;2023-09-19T17:01:12;18.00;99.90
8832;DHT22;4452;50.756;4.472;2023-09-19T17:03:40;18.00;99.90